Time;durP1;ratioP1;P1;durP2;ratioP2;P2;SDS_P1;SDS_P2;PMS_P1;PMS_P2;Temp;Humidity;BMP_temperature;BMP_pressure;BME280_temperature;BME280_humidity;BME280_pressure;Samples;Min_cycle;Max_cycle;Signal;HPM_P1;HPM_P2
2021/01/29 00:01:01;;;;;;;14.40;4.90;;;12.50;75.10;;;;;;2122494;27;20026;-60
2021/01/29 00:02:22;;;;;;;14.45;5.00;;;12.60;75.10;;;;;;2119747;27;20108;-60
2021/01/29 00:03:43;;;;;;;11.23;5.05;;;12.60;75.10;;;;;;2128510;27;20365;-60
2021/01/29 00:05:04;;;;;;;7.70;4.22;;;12.60;75.00;;;;;;2117010;27;20108;-60
2021/01/29 00:06:25;;;;;;;14.30;4.20;;;12.60;75.00;;;;;;2126204;27;20023;-60
2021/01/29 00:07:46;;;;;;;14.30;5.00;;;12.60;75.00;;;;;;2129953;27;20022;-60
2021/01/29 00:09:07;;;;;;;10.55;4.32;;;12.60;75.70;;;;;;2116378;27;20103;-60
2021/01/29 00:10:29;;;;;;;10.52;4.68;;;12.60;75.70;;;;;;2125576;27;20108;-60
2021/01/29 00:11:50;;;;;;;11.55;4.95;;;12.60;75.00;;;;;;2125659;27;20031;-60
2021/01/29 00:13:12;;;;;;;14.13;5.40;;;12.60;75.00;;;;;;2129084;27;20036;-60
2021/01/29 00:14:33;;;;;;;14.07;4.82;;;12.60;75.00;;;;;;2127122;27;20068;-59
2021/01/29 00:15:55;;;;;;;12.60;5.03;;;12.60;74.90;;;;;;2124879;27;20030;-59
2021/01/29 00:17:15;;;;;;;15.15;4.72;;;12.60;75.40;;;;;;2117053;27;20015;-59
2021/01/29 00:18:36;;;;;;;12.13;4.60;;;12.60;74.90;;;;;;2122267;27;20023;-59
2021/01/29 00:19:57;;;;;;;14.70;4.60;;;12.60;75.60;;;;;;2126352;27;20031;-59
2021/01/29 00:21:18;;;;;;;11.40;5.18;;;12.60;74.80;;;;;;2118443;27;20027;-59
2021/01/29 00:22:39;;;;;;;10.05;4.88;;;12.60;74.80;;;;;;2121011;27;20080;-60
2021/01/29 00:24:02;;;;;;;15.32;5.95;;;12.70;74.80;;;;;;2116026;27;20031;-60
2021/01/29 00:25:45;;;;;;;10.68;4.63;;;12.70;74.70;;;;;;2120144;27;20294;-59
2021/01/29 00:27:06;;;;;;;12.18;4.65;;;12.60;74.80;;;;;;2120426;27;20035;-59
2021/01/29 00:28:27;;;;;;;9.95;4.30;;;12.70;74.60;;;;;;2122078;27;20033;-59
2021/01/29 00:29:48;;;;;;;9.73;4.25;;;12.70;74.60;;;;;;2128254;27;20087;-60
2021/01/29 00:31:09;;;;;;;12.75;4.38;;;12.70;74.60;;;;;;2125244;27;20148;-59
2021/01/29 00:32:30;;;;;;;10.23;4.57;;;12.70;74.70;;;;;;2125529;27;20034;-59
2021/01/29 00:33:51;;;;;;;9.05;4.47;;;12.70;74.70;;;;;;2129451;27;20083;-58
2021/01/29 00:35:13;;;;;;;12.50;4.63;;;12.70;74.70;;;;;;2118496;27;20354;-60
2021/01/29 00:36:34;;;;;;;9.93;4.20;;;12.70;74.70;;;;;;2120737;28;20066;-59
2021/01/29 00:37:55;;;;;;;9.50;4.50;;;12.70;74.70;;;;;;2128833;27;20510;-59
2021/01/29 00:39:16;;;;;;;14.60;4.63;;;12.70;74.70;;;;;;2120128;27;20036;-59
2021/01/29 00:40:37;;;;;;;9.80;4.00;;;12.70;74.70;;;;;;2124443;27;20026;-59
2021/01/29 00:41:58;;;;;;;10.20;4.00;;;12.70;74.70;;;;;;2123114;27;20023;-58
2021/01/29 00:43:19;;;;;;;9.63;3.78;;;12.70;74.70;;;;;;2117912;28;20031;-59
2021/01/29 00:44:40;;;;;;;16.30;4.15;;;12.70;74.70;;;;;;2126490;27;20014;-60
2021/01/29 00:46:01;;;;;;;8.45;3.97;;;12.70;74.70;;;;;;2113110;28;20099;-59
2021/01/29 00:47:22;;;;;;;8.93;4.13;;;12.70;74.60;;;;;;2114472;28;20038;-59
2021/01/29 00:48:47;;;;;;;10.77;4.20;;;12.70;74.60;;;;;;2128876;27;20046;-58
2021/01/29 00:50:09;;;;;;;13.85;4.40;;;12.70;74.60;;;;;;2125571;27;20640;-60
2021/01/29 00:51:30;;;;;;;10.95;4.43;;;12.70;74.60;;;;;;2121171;28;20034;-59
2021/01/29 00:52:51;;;;;;;11.63;4.65;;;12.70;74.60;;;;;;2117271;27;20421;-58
2021/01/29 00:54:12;;;;;;;12.40;4.18;;;12.70;74.60;;;;;;2117040;27;20390;-58
2021/01/29 00:55:33;;;;;;;16.60;4.47;;;12.70;74.50;;;;;;2126679;27;20033;-59
2021/01/29 00:56:54;;;;;;;8.40;3.78;;;12.80;74.60;;;;;;2122601;28;20026;-58
2021/01/29 00:58:15;;;;;;;10.98;3.78;;;12.70;74.60;;;;;;2118806;27;20023;-58
2021/01/29 00:59:36;;;;;;;16.10;4.30;;;12.70;74.50;;;;;;2121005;27;20091;-58
2021/01/29 01:00:56;;;;;;;9.55;4.05;;;12.80;74.60;;;;;;2117308;28;20027;-58
2021/01/29 01:02:17;;;;;;;7.45;3.63;;;12.70;74.50;;;;;;2114664;28;20424;-59
2021/01/29 01:03:39;;;;;;;9.50;3.78;;;12.70;74.60;;;;;;2120195;28;20446;-59
2021/01/29 01:05:00;;;;;;;11.95;4.18;;;12.70;74.50;;;;;;2115588;28;20031;-59
2021/01/29 01:06:21;;;;;;;10.35;3.85;;;12.70;74.50;;;;;;2113820;28;20065;-59
2021/01/29 01:07:42;;;;;;;12.65;4.15;;;12.80;74.60;;;;;;2120543;28;20134;-59
2021/01/29 01:09:03;;;;;;;11.00;3.95;;;12.70;74.50;;;;;;2121543;27;20111;-58
2021/01/29 01:10:25;;;;;;;7.72;3.75;;;12.80;74.60;;;;;;2124506;27;20054;-58
2021/01/29 01:11:45;;;;;;;10.70;3.97;;;12.80;74.60;;;;;;2125610;27;20090;-60
2021/01/29 01:13:07;;;;;;;10.63;3.80;;;12.70;74.50;;;;;;2116402;28;20162;-60
2021/01/29 01:14:27;;;;;;;11.73;3.45;;;12.80;74.60;;;;;;2121963;27;20027;-60
2021/01/29 01:15:48;;;;;;;7.18;4.03;;;12.80;74.60;;;;;;2124726;27;20415;-60
2021/01/29 01:17:09;;;;;;;9.75;3.85;;;12.80;74.60;;;;;;2116709;28;20028;-60
2021/01/29 01:18:30;;;;;;;7.72;3.92;;;12.80;74.50;;;;;;2123526;28;20050;-58
2021/01/29 01:19:51;;;;;;;11.52;3.78;;;12.80;74.50;;;;;;2125166;27;20034;-60
2021/01/29 01:21:12;;;;;;;6.85;3.65;;;12.80;74.50;;;;;;2116938;28;20110;-60
2021/01/29 01:22:33;;;;;;;7.75;3.75;;;12.80;74.50;;;;;;2123254;27;20106;-60
2021/01/29 01:23:54;;;;;;;10.38;3.90;;;12.80;74.60;;;;;;2117204;27;20608;-60
2021/01/29 01:25:15;;;;;;;7.75;3.85;;;12.80;74.60;;;;;;2117141;28;20046;-60
2021/01/29 01:26:36;;;;;;;10.55;3.65;;;12.80;74.60;;;;;;2122720;27;20428;-60
2021/01/29 01:27:58;;;;;;;7.65;3.90;;;12.80;74.60;;;;;;2119880;27;20134;-60
2021/01/29 01:29:19;;;;;;;10.23;4.22;;;12.80;74.50;;;;;;2112984;28;20067;-60
2021/01/29 01:30:41;;;;;;;6.28;3.67;;;12.80;74.50;;;;;;2120701;27;20411;-60
2021/01/29 01:32:03;;;;;;;10.02;3.80;;;12.80;74.50;;;;;;2124547;27;20042;-60
2021/01/29 01:33:23;;;;;;;7.22;3.50;;;12.80;74.50;;;;;;2124999;27;20020;-60
2021/01/29 01:34:44;;;;;;;7.25;3.15;;;12.90;74.60;;;;;;2120540;27;20019;-60
2021/01/29 01:36:05;;;;;;;6.70;2.90;;;12.80;74.60;;;;;;2115027;28;20035;-60
2021/01/29 01:37:26;;;;;;;7.35;3.78;;;12.80;74.50;;;;;;2123427;27;20080;-60
2021/01/29 01:38:47;;;;;;;6.13;3.30;;;12.80;74.50;;;;;;2119833;28;20023;-60
2021/01/29 01:40:09;;;;;;;8.00;3.28;;;12.80;74.50;;;;;;2116896;28;20024;-60
2021/01/29 01:41:30;;;;;;;8.43;4.07;;;12.80;74.50;;;;;;2123001;27;20409;-60
2021/01/29 01:42:51;;;;;;;9.75;3.47;;;12.80;74.50;;;;;;2121024;27;20173;-60
2021/01/29 01:44:40;;;;;;;8.07;3.75;;;12.80;74.60;;;;;;2121574;27;20019;-60
2021/01/29 01:46:15;;;;;;;5.80;2.92;;;12.80;74.80;;;;;;2123976;27;20073;-60
2021/01/29 01:47:40;;;;;;;6.50;3.22;;;12.80;74.60;;;;;;2121861;27;20414;-60
2021/01/29 01:49:07;;;;;;;6.70;3.17;;;12.80;74.50;;;;;;2123191;27;20126;-60
2021/01/29 01:50:32;;;;;;;4.68;3.17;;;12.80;74.50;;;;;;2120340;27;20401;-59
2021/01/29 01:52:12;;;;;;;7.88;3.25;;;12.80;74.50;;;;;;2124356;27;20011;-61
2021/01/29 01:53:42;;;;;;;5.60;2.85;;;12.80;74.50;;;;;;2125445;27;20030;-60
2021/01/29 01:55:09;;;;;;;6.38;3.50;;;12.80;74.40;;;;;;2117065;27;20019;-60
2021/01/29 01:56:44;;;;;;;6.53;3.10;;;12.80;74.40;;;;;;2122646;27;20020;-59
2021/01/29 01:58:07;;;;;;;6.80;3.22;;;12.80;74.50;;;;;;2116664;27;20474;-60
2021/01/29 01:59:34;;;;;;;5.25;3.30;;;12.90;74.40;;;;;;2125734;27;20040;-60
2021/01/29 02:00:55;;;;;;;10.35;3.45;;;12.80;74.40;;;;;;2126911;27;20445;-60
2021/01/29 02:02:21;;;;;;;4.10;2.60;;;12.90;74.40;;;;;;2119095;27;20023;-60
2021/01/29 02:03:42;;;;;;;6.78;3.40;;;12.80;74.40;;;;;;2122783;27;20561;-60
2021/01/29 02:05:11;;;;;;;6.13;3.20;;;12.80;74.40;;;;;;2118385;27;20071;-58
2021/01/29 02:06:49;;;;;;;6.00;2.90;;;12.80;74.50;;;;;;2122577;27;20035;-60
2021/01/29 02:08:12;;;;;;;11.20;3.88;;;12.80;74.50;;;;;;2116447;27;20096;-60
2021/01/29 02:09:38;;;;;;;6.93;3.20;;;12.80;74.40;;;;;;2122670;27;20030;-60
2021/01/29 02:10:59;;;;;;;7.57;3.42;;;12.80;74.40;;;;;;2121312;27;20030;-60
2021/01/29 02:12:20;;;;;;;6.47;3.15;;;12.80;74.40;;;;;;2118380;27;20332;-60
2021/01/29 02:13:41;;;;;;;7.68;2.90;;;12.80;74.40;;;;;;2123415;27;20035;-60
2021/01/29 02:15:11;;;;;;;7.95;3.40;;;12.80;74.40;;;;;;2121510;27;20065;-60
2021/01/29 02:16:46;;;;;;;5.70;3.28;;;12.80;74.50;;;;;;2120630;27;20015;-60
2021/01/29 02:18:32;;;;;;;7.15;3.00;;;12.80;74.60;;;;;;2116363;27;20054;-60
2021/01/29 02:20:29;;;;;;;5.03;2.80;;;12.80;74.70;;;;;;2124137;27;20022;-61
2021/01/29 02:22:34;;;;;;;4.72;2.83;;;12.80;74.70;;;;;;2111348;27;20024;-61
2021/01/29 02:24:25;;;;;;;5.05;2.45;;;12.80;74.50;;;;;;2093595;28;20056;-60
2021/01/29 02:26:17;;;;;;;5.88;2.70;;;12.80;74.70;;;;;;2088429;28;20040;-60
2021/01/29 02:27:59;;;;;;;4.82;2.47;;;12.80;74.70;;;;;;2088312;28;20055;-60
2021/01/29 02:30:12;;;;;;;6.32;2.80;;;12.70;74.70;;;;;;2110177;27;20037;-60
2021/01/29 02:32:03;;;;;;;6.63;3.17;;;12.70;74.80;;;;;;2121319;27;20062;-60
2021/01/29 02:34:02;;;;;;;5.00;2.58;;;12.70;74.70;;;;;;2118691;27;20374;-60
2021/01/29 02:35:44;;;;;;;5.75;2.35;;;12.80;74.90;;;;;;2121842;27;20037;-60
2021/01/29 02:37:42;;;;;;;2.60;2.35;;;12.70;74.80;;;;;;2115716;27;20043;-60
2021/01/29 02:39:15;;;;;;;2.65;2.17;;;12.70;75.00;;;;;;2122722;27;20031;-60
2021/01/29 02:40:58;;;;;;;5.75;2.50;;;12.70;74.90;;;;;;2121550;27;20035;-60
2021/01/29 02:42:30;;;;;;;3.50;2.30;;;12.70;74.90;;;;;;2119190;27;20034;-60
2021/01/29 02:44:32;;;;;;;3.50;2.10;;;12.70;75.00;;;;;;2126870;27;20035;-60
2021/01/29 02:46:09;;;;;;;8.77;2.65;;;12.70;75.00;;;;;;2104584;28;20028;-60
2021/01/29 02:47:35;;;;;;;4.50;2.70;;;12.70;75.00;;;;;;2095019;28;20036;-60
2021/01/29 02:49:26;;;;;;;5.75;2.78;;;12.70;75.00;;;;;;2097860;28;20156;-60
2021/01/29 02:50:55;;;;;;;5.18;2.55;;;12.70;75.20;;;;;;2104014;28;20032;-60
2021/01/29 02:52:24;;;;;;;3.22;2.60;;;12.70;75.00;;;;;;2117412;27;20116;-60
2021/01/29 02:54:10;;;;;;;5.85;2.80;;;12.70;75.10;;;;;;2129578;27;20030;-58
2021/01/29 02:55:46;;;;;;;5.57;2.70;;;12.70;75.20;;;;;;2126651;27;20113;-60
2021/01/29 02:57:12;;;;;;;5.30;2.78;;;12.70;75.10;;;;;;2128038;27;20023;-60
2021/01/29 02:58:44;;;;;;;4.32;2.58;;;12.70;75.00;;;;;;2124066;27;20116;-60
2021/01/29 03:00:11;;;;;;;5.53;2.83;;;12.70;75.30;;;;;;2116174;27;20031;-60
2021/01/29 03:01:38;;;;;;;5.15;2.50;;;12.80;75.20;;;;;;2121226;27;20098;-60
2021/01/29 03:03:09;;;;;;;3.80;3.03;;;12.70;75.20;;;;;;2114758;27;20024;-60
2021/01/29 03:04:37;;;;;;;5.97;2.75;;;12.70;75.20;;;;;;2121037;27;20094;-60
2021/01/29 03:06:06;;;;;;;3.65;2.55;;;12.80;75.30;;;;;;2115907;27;20431;-60
2021/01/29 03:07:37;;;;;;;3.10;2.38;;;12.70;75.30;;;;;;2118391;27;20031;-60
2021/01/29 03:09:06;;;;;;;4.53;2.33;;;12.80;75.30;;;;;;2126565;27;20027;-58
2021/01/29 03:10:39;;;;;;;3.45;2.22;;;12.70;75.20;;;;;;2120987;27;20027;-61
2021/01/29 03:12:16;;;;;;;4.53;2.28;;;12.80;75.30;;;;;;2115489;28;20110;-58
2021/01/29 03:14:12;;;;;;;2.85;1.88;;;12.70;75.40;;;;;;2122320;27;20023;-59
2021/01/29 03:15:40;;;;;;;5.18;2.55;;;12.70;75.50;;;;;;2118872;27;20020;-60
2021/01/29 03:17:30;;;;;;;3.60;2.15;;;12.80;75.30;;;;;;2123226;27;20023;-60
2021/01/29 03:19:28;;;;;;;4.07;2.30;;;12.70;75.50;;;;;;2121929;27;20027;-60
2021/01/29 03:21:15;;;;;;;7.35;2.28;;;12.80;75.60;;;;;;2098340;27;20517;-60
2021/01/29 03:22:43;;;;;;;3.25;1.58;;;12.70;75.40;;;;;;2119917;27;20102;-60
2021/01/29 03:24:18;;;;;;;6.43;1.92;;;12.70;75.20;;;;;;2129012;27;20287;-60
2021/01/29 03:25:44;;;;;;;4.47;2.08;;;12.80;75.40;;;;;;2113005;28;20019;-60
2021/01/29 03:27:29;;;;;;;4.80;2.45;;;12.70;75.40;;;;;;2115418;27;20035;-60
2021/01/29 03:28:56;;;;;;;8.23;2.10;;;12.70;75.70;;;;;;2125438;27;20113;-60
2021/01/29 03:30:23;;;;;;;3.63;2.03;;;12.80;75.60;;;;;;2118385;27;20049;-60
2021/01/29 03:31:48;;;;;;;4.07;1.90;;;12.70;75.50;;;;;;2121398;27;20334;-60
2021/01/29 03:33:11;;;;;;;6.10;2.10;;;12.70;75.50;;;;;;2116302;27;20528;-60
2021/01/29 03:34:57;;;;;;;4.72;2.20;;;12.80;75.60;;;;;;2120570;27;20561;-60
2021/01/29 03:36:20;;;;;;;6.30;2.10;;;12.70;75.70;;;;;;2118217;27;20032;-60
2021/01/29 03:37:48;;;;;;;2.55;1.73;;;12.80;75.50;;;;;;2128367;27;20030;-60
2021/01/29 03:39:34;;;;;;;2.97;1.67;;;12.70;75.60;;;;;;2128462;27;20023;-60
2021/01/29 03:41:09;;;;;;;4.35;1.70;;;12.80;75.60;;;;;;2122941;27;20027;-60
2021/01/29 03:42:40;;;;;;;3.72;1.70;;;12.80;75.50;;;;;;2119656;27;20033;-60
2021/01/29 03:44:22;;;;;;;4.68;1.60;;;12.80;75.40;;;;;;2126716;27;20031;-60
2021/01/29 03:46:04;;;;;;;5.18;2.05;;;12.80;75.40;;;;;;2121213;27;20037;-60
2021/01/29 03:47:36;;;;;;;4.05;1.88;;;12.80;75.30;;;;;;2119545;27;20480;-60
2021/01/29 03:49:17;;;;;;;1.75;1.58;;;12.80;75.30;;;;;;2121658;27;20454;-60
2021/01/29 03:51:08;;;;;;;5.68;2.10;;;12.80;75.20;;;;;;2121660;27;20374;-60
2021/01/29 03:53:07;;;;;;;2.40;1.65;;;12.80;75.40;;;;;;2116616;27;20358;-60
2021/01/29 03:55:29;;;;;;;2.92;1.50;;;12.80;75.40;;;;;;2119857;27;20027;-60
2021/01/29 03:57:06;;;;;;;3.42;1.60;;;12.80;75.50;;;;;;2085708;28;20021;-60
2021/01/29 03:58:36;;;;;;;3.72;1.70;;;12.80;75.00;;;;;;2084317;27;20438;-60
2021/01/29 04:00:17;;;;;;;1.83;1.52;;;12.80;75.10;;;;;;2127685;27;20125;-60
2021/01/29 04:01:52;;;;;;;3.15;1.40;;;12.80;75.10;;;;;;2120296;27;20023;-60
2021/01/29 04:03:33;;;;;;;2.20;1.35;;;12.80;75.40;;;;;;2117270;27;20035;-60
2021/01/29 04:05:15;;;;;;;3.58;1.50;;;12.80;75.30;;;;;;2118154;27;20051;-60
2021/01/29 04:06:49;;;;;;;2.55;1.33;;;12.80;75.50;;;;;;2118528;28;20049;-60
2021/01/29 04:08:21;;;;;;;4.05;1.40;;;12.80;75.40;;;;;;2123555;27;20035;-60
2021/01/29 04:09:58;;;;;;;3.53;1.25;;;12.80;75.40;;;;;;2113700;28;20106;-60
2021/01/29 04:11:24;;;;;;;2.33;1.33;;;12.80;75.60;;;;;;2118180;27;20117;-60
2021/01/29 04:13:01;;;;;;;1.50;1.40;;;12.80;75.50;;;;;;2123770;27;20104;-60
2021/01/29 04:14:35;;;;;;;4.63;1.75;;;12.80;75.60;;;;;;2122680;27;20031;-60
2021/01/29 04:15:56;;;;;;;2.67;1.27;;;12.80;75.80;;;;;;2125704;27;20472;-60
2021/01/29 04:17:25;;;;;;;2.45;1.45;;;12.80;75.60;;;;;;2117797;27;20037;-60
2021/01/29 04:18:54;;;;;;;1.73;1.50;;;12.80;75.70;;;;;;2121680;27;20007;-60
2021/01/29 04:20:23;;;;;;;2.67;1.40;;;12.80;75.80;;;;;;2119706;27;20026;-60
2021/01/29 04:22:04;;;;;;;1.75;1.23;;;12.90;75.90;;;;;;2123501;27;20015;-60
2021/01/29 04:23:38;;;;;;;1.67;1.40;;;12.80;76.00;;;;;;2119850;27;20081;-60
2021/01/29 04:25:22;;;;;;;3.40;1.30;;;12.90;75.90;;;;;;2115188;27;20034;-60
2021/01/29 04:26:57;;;;;;;2.20;1.30;;;12.90;76.00;;;;;;2121779;27;20027;-60
2021/01/29 04:28:20;;;;;;;1.63;1.20;;;12.90;75.80;;;;;;2121786;27;20019;-60
2021/01/29 04:29:49;;;;;;;0.85;0.80;;;12.90;75.70;;;;;;2128710;27;20018;-60
2021/01/29 04:31:13;;;;;;;3.88;1.50;;;12.90;75.80;;;;;;2120133;27;20098;-60
2021/01/29 04:32:41;;;;;;;1.00;0.90;;;12.90;75.90;;;;;;2120623;27;20053;-60
2021/01/29 04:34:16;;;;;;;1.13;1.00;;;12.90;76.00;;;;;;2116752;28;20427;-59
2021/01/29 04:35:39;;;;;;;2.08;1.02;;;12.90;76.20;;;;;;2120445;27;20057;-60
2021/01/29 04:37:06;;;;;;;1.58;0.80;;;12.90;76.00;;;;;;2122004;27;20106;-59
2021/01/29 04:38:35;;;;;;;2.00;1.10;;;12.90;76.00;;;;;;2126386;27;20062;-60
2021/01/29 04:40:01;;;;;;;1.20;1.10;;;12.90;76.00;;;;;;2126008;27;20015;-59
2021/01/29 04:41:31;;;;;;;1.08;0.80;;;12.90;76.00;;;;;;2123190;27;20433;-60
2021/01/29 04:43:09;;;;;;;1.00;0.88;;;12.90;76.10;;;;;;2121079;27;20012;-60
2021/01/29 04:45:15;;;;;;;0.93;0.90;;;13.00;76.00;;;;;;2119485;28;20355;-60
2021/01/29 04:47:11;;;;;;;1.20;1.10;;;13.00;76.20;;;;;;2120423;28;20019;-60
2021/01/29 04:48:32;;;;;;;0.95;0.93;;;13.00;75.90;;;;;;2122341;28;20597;-59
2021/01/29 04:50:27;;;;;;;1.15;1.02;;;13.00;75.80;;;;;;2127617;27;20084;-59
2021/01/29 04:52:35;;;;;;;1.70;1.08;;;13.00;76.00;;;;;;2098079;28;20042;-60
2021/01/29 04:53:59;;;;;;;0.80;0.80;;;13.00;75.80;;;;;;2121125;27;20114;-59
2021/01/29 04:55:38;;;;;;;1.23;1.05;;;13.10;75.60;;;;;;2124080;27;20110;-59
2021/01/29 04:57:05;;;;;;;1.63;1.20;;;13.00;75.50;;;;;;2121297;28;20019;-60
2021/01/29 04:59:06;;;;;;;1.75;1.10;;;13.10;75.50;;;;;;2119831;28;20247;-60
2021/01/29 05:00:59;;;;;;;1.70;1.23;;;13.00;75.70;;;;;;2119595;28;20023;-59
2021/01/29 05:02:44;;;;;;;0.98;0.98;;;13.00;75.60;;;;;;2117756;28;20031;-59
2021/01/29 05:04:16;;;;;;;1.17;1.08;;;13.00;76.30;;;;;;2114188;28;20056;-59
2021/01/29 05:06:22;;;;;;;1.10;0.93;;;13.00;75.40;;;;;;2121042;28;20070;-59
2021/01/29 05:08:16;;;;;;;1.13;1.02;;;13.00;75.70;;;;;;2111110;28;20031;-59
2021/01/29 05:09:59;;;;;;;1.48;1.17;;;13.00;75.50;;;;;;2119924;28;20030;-59
2021/01/29 05:11:40;;;;;;;1.30;1.10;;;13.00;75.50;;;;;;2117617;28;20042;-59
2021/01/29 05:13:04;;;;;;;0.90;0.90;;;13.00;75.60;;;;;;2115245;28;20135;-59
2021/01/29 05:14:45;;;;;;;0.93;0.90;;;13.10;75.50;;;;;;2118742;27;20032;-59
2021/01/29 05:16:17;;;;;;;0.80;0.80;;;13.00;75.50;;;;;;2115467;28;20057;-59
2021/01/29 05:18:04;;;;;;;1.15;0.90;;;13.00;75.50;;;;;;2121052;27;20464;-59
2021/01/29 05:20:20;;;;;;;1.05;0.90;;;13.00;75.70;;;;;;2119577;27;20637;-59
2021/01/29 05:22:11;;;;;;;0.60;0.60;;;13.00;75.80;;;;;;2075907;27;20037;-59
2021/01/29 05:24:09;;;;;;;0.60;0.60;;;13.00;75.60;;;;;;2123509;27;20030;-59
2021/01/29 05:25:47;;;;;;;0.60;0.60;;;13.10;75.70;;;;;;2120937;27;20031;-59
2021/01/29 05:27:26;;;;;;;0.60;0.60;;;13.10;75.60;;;;;;2117663;27;20059;-59
2021/01/29 05:29:05;;;;;;;0.60;0.60;;;13.10;75.50;;;;;;2123493;27;20027;-59
2021/01/29 05:30:37;;;;;;;0.70;0.70;;;13.10;75.70;;;;;;2119828;27;20072;-59
2021/01/29 05:32:11;;;;;;;1.20;0.80;;;13.10;75.60;;;;;;2120657;27;20024;-59
2021/01/29 05:33:48;;;;;;;0.47;0.47;;;13.10;76.30;;;;;;2121340;27;20030;-59
2021/01/29 05:35:18;;;;;;;0.70;0.70;;;13.10;75.80;;;;;;2130000;27;20031;-59
2021/01/29 05:37:16;;;;;;;0.60;0.60;;;13.10;75.60;;;;;;2122047;27;20024;-59
2021/01/29 05:39:16;;;;;;;0.60;0.50;;;13.10;76.00;;;;;;2120813;27;20061;-59
2021/01/29 05:41:03;;;;;;;0.60;0.47;;;13.00;75.80;;;;;;2124132;27;20027;-59
2021/01/29 05:42:39;;;;;;;1.05;0.50;;;13.10;75.80;;;;;;2119895;27;20031;-59
2021/01/29 05:44:30;;;;;;;0.63;0.63;;;13.10;75.60;;;;;;2130131;27;20241;-59
2021/01/29 05:46:29;;;;;;;1.00;0.60;;;13.00;75.90;;;;;;2123607;27;20368;-59
2021/01/29 05:48:13;;;;;;;0.60;0.60;;;13.00;75.90;;;;;;2121806;27;20027;-59
2021/01/29 05:49:48;;;;;;;0.70;0.70;;;13.00;75.70;;;;;;2121022;27;20030;-59
2021/01/29 05:51:27;;;;;;;0.70;0.70;;;13.10;75.90;;;;;;2116501;27;20039;-59
2021/01/29 05:53:20;;;;;;;0.70;0.70;;;13.00;75.90;;;;;;2123206;27;20030;-59
2021/01/29 05:54:53;;;;;;;0.60;0.60;;;13.00;76.10;;;;;;2121649;27;20145;-57
2021/01/29 05:56:45;;;;;;;1.52;0.80;;;13.00;75.70;;;;;;2122109;27;20027;-59
2021/01/29 05:58:31;;;;;;;1.27;0.80;;;13.00;75.80;;;;;;2127946;27;20022;-59
2021/01/29 06:00:21;;;;;;;0.82;0.60;;;13.00;76.10;;;;;;2128654;27;20015;-59
2021/01/29 06:02:00;;;;;;;0.80;0.80;;;13.00;75.90;;;;;;2121732;27;20015;-59
2021/01/29 06:03:32;;;;;;;0.60;0.60;;;13.00;75.90;;;;;;2117942;27;20050;-59
2021/01/29 06:04:56;;;;;;;0.85;0.75;;;13.00;75.80;;;;;;2121325;27;20063;-59
2021/01/29 06:06:39;;;;;;;0.77;0.77;;;13.00;75.60;;;;;;2110985;27;20515;-59
2021/01/29 06:08:06;;;;;;;0.60;0.60;;;13.00;75.60;;;;;;2122943;27;20035;-59
2021/01/29 06:10:02;;;;;;;0.80;0.80;;;13.00;75.40;;;;;;2119773;27;20019;-60
2021/01/29 06:11:40;;;;;;;0.68;0.60;;;13.00;75.40;;;;;;2119823;27;20023;-59
2021/01/29 06:13:26;;;;;;;1.08;0.98;;;13.00;75.20;;;;;;2121630;27;20087;-59
2021/01/29 06:15:02;;;;;;;0.70;0.70;;;13.00;75.10;;;;;;2125967;27;20590;-59
2021/01/29 06:17:01;;;;;;;1.40;0.88;;;13.00;75.00;;;;;;2118377;27;20023;-60
2021/01/29 06:18:31;;;;;;;1.00;0.90;;;13.00;75.00;;;;;;2100640;27;20028;-59
2021/01/29 06:20:30;;;;;;;0.80;0.80;;;13.00;74.80;;;;;;2120723;27;20419;-60
2021/01/29 06:22:12;;;;;;;0.80;0.80;;;13.00;74.70;;;;;;2121457;27;20027;-59
2021/01/29 06:24:01;;;;;;;1.23;1.00;;;13.00;74.60;;;;;;2120214;27;20529;-60
2021/01/29 06:25:33;;;;;;;1.30;1.20;;;13.00;74.50;;;;;;2118940;27;20154;-60
2021/01/29 06:27:22;;;;;;;1.10;1.00;;;13.00;74.50;;;;;;2122400;27;20015;-60
2021/01/29 06:29:19;;;;;;;0.70;0.70;;;12.90;74.30;;;;;;2120664;27;20025;-60
2021/01/29 06:31:04;;;;;;;1.00;1.00;;;12.90;74.50;;;;;;2128294;27;20027;-59
2021/01/29 06:32:52;;;;;;;1.10;1.10;;;12.90;74.40;;;;;;2119808;27;20477;-59
2021/01/29 06:34:30;;;;;;;1.40;1.20;;;12.90;74.40;;;;;;2119396;27;20417;-59
2021/01/29 06:35:56;;;;;;;1.10;1.10;;;12.90;74.50;;;;;;2122398;27;20551;-59
2021/01/29 06:37:38;;;;;;;1.27;1.27;;;12.90;74.50;;;;;;2123413;27;20020;-60
2021/01/29 06:39:22;;;;;;;1.42;1.40;;;12.90;74.50;;;;;;2115716;27;20412;-60
2021/01/29 06:40:50;;;;;;;1.88;1.77;;;12.90;74.60;;;;;;2120113;27;20075;-60
2021/01/29 06:42:48;;;;;;;1.52;1.42;;;12.90;74.60;;;;;;2115299;27;20032;-59
2021/01/29 06:44:31;;;;;;;1.42;1.38;;;12.90;74.60;;;;;;2116188;27;20023;-59
2021/01/29 06:46:17;;;;;;;1.90;1.80;;;12.90;74.60;;;;;;2128586;27;20023;-60
2021/01/29 06:47:53;;;;;;;1.83;1.73;;;12.90;74.60;;;;;;2119721;27;20389;-60
2021/01/29 06:49:42;;;;;;;2.17;1.83;;;12.90;74.60;;;;;;2117113;27;20071;-59
2021/01/29 06:51:29;;;;;;;1.80;1.70;;;12.90;74.50;;;;;;2115355;27;20035;-60
2021/01/29 06:53:28;;;;;;;1.80;1.70;;;13.00;74.60;;;;;;2120348;27;20453;-59
2021/01/29 06:55:20;;;;;;;2.00;1.90;;;13.00;74.60;;;;;;2123327;27;20023;-59
2021/01/29 06:56:47;;;;;;;1.90;1.80;;;13.00;74.50;;;;;;2121720;27;20023;-59
2021/01/29 06:58:11;;;;;;;1.98;1.88;;;13.00;74.50;;;;;;2116694;27;20076;-59
2021/01/29 07:00:14;;;;;;;2.28;2.17;;;13.00;74.50;;;;;;2121675;27;20080;-60
2021/01/29 07:02:16;;;;;;;2.10;2.00;;;13.00;74.60;;;;;;2118953;27;20674;-60
2021/01/29 07:04:03;;;;;;;1.90;1.80;;;13.00;74.60;;;;;;2125592;27;20023;-59
2021/01/29 07:05:30;;;;;;;2.28;2.13;;;13.00;74.60;;;;;;2117910;27;20039;-59
2021/01/29 07:07:09;;;;;;;2.05;1.95;;;13.00;74.40;;;;;;2121347;27;20027;-59
2021/01/29 07:08:57;;;;;;;2.08;1.98;;;13.00;74.60;;;;;;2113643;27;20023;-59
2021/01/29 07:10:21;;;;;;;1.95;1.85;;;12.90;74.50;;;;;;2117114;27;20065;-59
2021/01/29 07:12:15;;;;;;;2.50;2.30;;;12.90;74.40;;;;;;2125854;27;20023;-59
2021/01/29 07:14:02;;;;;;;2.10;2.00;;;13.00;74.80;;;;;;2119869;27;20104;-60
2021/01/29 07:15:39;;;;;;;2.22;2.03;;;13.00;74.70;;;;;;2116743;27;20019;-59
2021/01/29 07:17:19;;;;;;;2.22;2.13;;;13.00;74.60;;;;;;2122021;27;20023;-59
2021/01/29 07:18:59;;;;;;;2.28;2.08;;;13.00;74.80;;;;;;2121813;27;20015;-59
2021/01/29 07:20:25;;;;;;;;;;;12.90;74.70;;;;;;2117379;27;20054;-60
2021/01/29 07:22:17;;;;;;;2.67;2.15;;;12.90;74.90;;;;;;2121991;27;20237;-59
2021/01/29 07:23:38;;;;;;;1.98;1.88;;;12.90;74.60;;;;;;2121118;27;20361;-60
2021/01/29 07:25:11;;;;;;;3.28;2.10;;;13.00;74.60;;;;;;2121834;27;20417;-59
2021/01/29 07:26:47;;;;;;;2.60;2.28;;;12.90;75.00;;;;;;2119571;27;20015;-59
2021/01/29 07:28:41;;;;;;;3.05;2.00;;;12.90;75.10;;;;;;2123936;27;20383;-59
2021/01/29 07:30:17;;;;;;;3.50;2.28;;;12.90;75.10;;;;;;2116132;27;20114;-59
2021/01/29 07:31:46;;;;;;;1.98;1.88;;;12.90;75.10;;;;;;2121619;27;20365;-59
2021/01/29 07:33:21;;;;;;;2.67;2.30;;;12.90;75.20;;;;;;2116093;27;20034;-60
2021/01/29 07:35:00;;;;;;;1.77;1.67;;;12.90;75.30;;;;;;2122651;27;20035;-59
2021/01/29 07:36:24;;;;;;;1.73;1.63;;;12.90;75.30;;;;;;2116648;27;20601;-60
2021/01/29 07:38:06;;;;;;;1.50;1.40;;;12.80;75.10;;;;;;2120879;27;20067;-60
2021/01/29 07:40:03;;;;;;;1.65;1.40;;;12.80;75.20;;;;;;2118479;27;20542;-60
2021/01/29 07:42:11;;;;;;;1.33;1.20;;;12.80;75.30;;;;;;2118500;27;20524;-60
2021/01/29 07:43:57;;;;;;;1.63;1.50;;;12.80;75.40;;;;;;2088507;28;20476;-60
2021/01/29 07:45:29;;;;;;;2.05;1.20;;;12.80;75.40;;;;;;2116403;27;20023;-60
2021/01/29 07:47:29;;;;;;;1.30;1.20;;;12.80;75.20;;;;;;2121202;27;20391;-60
2021/01/29 07:49:11;;;;;;;;;;;12.80;75.60;;;;;;2121084;27;20458;-59
2021/01/29 07:50:52;;;;;;;1.25;1.17;;;12.70;75.70;;;;;;2119503;27;19907;-60
2021/01/29 07:52:25;;;;;;;1.48;1.38;;;12.80;75.40;;;;;;2117060;27;20450;-60
2021/01/29 07:53:59;;;;;;;3.55;1.73;;;12.70;75.40;;;;;;2128420;27;20330;-60
2021/01/29 07:55:23;;;;;;;2.33;1.60;;;12.70;75.20;;;;;;2115751;27;20362;-59
2021/01/29 07:57:07;;;;;;;2.72;2.10;;;12.70;75.30;;;;;;2121811;27;20562;-60
2021/01/29 07:58:37;;;;;;;2.83;2.10;;;12.70;75.70;;;;;;2120263;27;20027;-60
2021/01/29 08:00:26;;;;;;;4.85;2.03;;;12.70;75.50;;;;;;2122413;27;20110;-60
2021/01/29 08:01:56;;;;;;;4.57;2.28;;;12.70;75.90;;;;;;2121286;27;20034;-60
2021/01/29 08:03:35;;;;;;;7.10;2.42;;;12.70;75.70;;;;;;2116512;27;20058;-60
2021/01/29 08:05:18;;;;;;;3.58;2.58;;;12.70;75.80;;;;;;2120978;27;20023;-60
2021/01/29 08:06:50;;;;;;;6.18;2.83;;;12.70;76.10;;;;;;2120167;27;20105;-59
2021/01/29 08:08:18;;;;;;;8.40;2.83;;;12.60;75.80;;;;;;2121682;27;20031;-60
2021/01/29 08:09:44;;;;;;;8.02;3.00;;;12.60;75.90;;;;;;2123339;27;20027;-59
2021/01/29 08:11:08;;;;;;;7.50;3.25;;;12.60;75.80;;;;;;2114777;27;20039;-59
2021/01/29 08:12:34;;;;;;;5.95;2.90;;;12.60;75.90;;;;;;2121332;27;20027;-59